Dades meteomassalio
Diari Summary for Diciembre 08, 2017 Units:  Both    English   Metric
« Previous Day
Next Day »
Diari Semanal Mensual Anual Personalitzat
  Maxima: Minima: Mijana:
Temperatura: 57.9 °F /  14.4 °C 21.9 °F /  -5.6 °C 41.5 °F /  5.3 °C
Rosada: 43.7 °F /  6.5 °C 18.5 °F /  -7.5 °C 33.4 °F /  0.8 °C
Humitat: 88 % 58 % 74 %
Velocitat del vent: 24.2 mph /  38.9 km/h - 8.9 mph /  14.4 km/h
Racha vent: 24.2 mph /  38.9 km/h - -
Vent:- - NW
Pressio: 30.5 in /  1032.7 hPa 30.3 in /  1026.6 hPa -
Pluja: 0 in /  0.0 mm    
Historical Graphs
 
 
Tabular Data for Diciembre 08, 2017
Time Temperature Dew Point Pressure Wind Wind Speed Wind Gust Humidity Rainfall Rate (Hourly) solar Conditions
00:01 24.1 °F /  -4.4 °C 20.5 °F /  -6.4 °C 30.5 in /  1032.7 hPa Calm     86 % 0 in /  0.0 mm 0.0 W/m2 CLR
00:06 24.1 °F /  -4.4 °C 20.5 °F /  -6.4 °C 30.5 in /  1032.7 hPa Calm     86 % 0 in /  0.0 mm 0.0 W/m2 CLR
00:11 24.1 °F /  -4.4 °C 20.5 °F /  -6.4 °C 30.5 in /  1032.7 hPa Calm     86 % 0 in /  0.0 mm 0.0 W/m2 CLR
00:16 24.1 °F /  -4.4 °C 20.5 °F /  -6.4 °C 30.5 in /  1032.7 hPa Calm     86 % 0 in /  0.0 mm 0.0 W/m2 CLR
00:21 24.1 °F /  -4.4 °C 20.5 °F /  -6.4 °C 30.5 in /  1032.4 hPa Calm     86 % 0 in /  0.0 mm 0.0 W/m2 CLR
00:26 23 °F /  -5.0 °C 19.4 °F /  -7.0 °C 30.5 in /  1032.4 hPa Calm     86 % 0 in /  0.0 mm 0.0 W/m2 CLR
00:31 23 °F /  -5.0 °C 19.4 °F /  -7.0 °C 30.5 in /  1032.4 hPa Calm     86 % 0 in /  0.0 mm 0.0 W/m2 CLR
00:36 23 °F /  -5.0 °C 19.4 °F /  -7.0 °C 30.5 in /  1032.4 hPa Calm     86 % 0 in /  0.0 mm 0.0 W/m2 CLR
00:41 23 °F /  -5.0 °C 19.4 °F /  -7.0 °C 30.5 in /  1032.4 hPa Calm     86 % 0 in /  0.0 mm 0.0 W/m2 CLR
00:51 23 °F /  -5.0 °C 19.4 °F /  -7.0 °C 30.5 in /  1032.1 hPa Calm     86 % 0 in /  0.0 mm 0.0 W/m2 CLR
01:01 21.9 °F /  -5.6 °C 18.7 °F /  -7.4 °C 30.5 in /  1032.1 hPa Calm     87 % 0 in /  0.0 mm 0.0 W/m2 CLR
01:06 21.9 °F /  -5.6 °C 18.7 °F /  -7.4 °C 30.5 in /  1032.1 hPa WSW 3 mph /  4.8 km/h 3 mph /  4.8 km/h 87 % 0 in /  0.0 mm 0.0 W/m2 CLR
01:11 21.9 °F /  -5.6 °C 18.7 °F /  -7.4 °C 30.5 in /  1032.1 hPa WSW 1.2 mph /  1.9 km/h   87 % 0 in /  0.0 mm 0.0 W/m2 CLR
01:16 23 °F /  -5.0 °C 19.8 °F /  -6.8 °C 30.5 in /  1032.1 hPa Calm     87 % 0 in /  0.0 mm 0.0 W/m2 CLR
01:26 23 °F /  -5.0 °C 19.8 °F /  -6.8 °C 30.5 in /  1032.1 hPa Calm     87 % 0 in /  0.0 mm 0.0 W/m2 CLR
01:31 23 °F /  -5.0 °C 19.8 °F /  -6.8 °C 30.5 in /  1032.1 hPa Calm     87 % 0 in /  0.0 mm 0.0 W/m2 CLR
01:41 21.9 °F /  -5.6 °C 18.7 °F /  -7.4 °C 30.5 in /  1031.7 hPa Calm     87 % 0 in /  0.0 mm 0.0 W/m2 CLR
01:51 21.9 °F /  -5.6 °C 18.7 °F /  -7.4 °C 30.5 in /  1031.7 hPa Calm     87 % 0 in /  0.0 mm 0.0 W/m2 CLR
01:56 21.9 °F /  -5.6 °C 19 °F /  -7.2 °C 30.5 in /  1031.7 hPa Calm     88 % 0 in /  0.0 mm 0.0 W/m2 CLR
02:06 21.9 °F /  -5.6 °C 18.7 °F /  -7.4 °C 30.5 in /  1031.7 hPa Calm     87 % 0 in /  0.0 mm 0.0 W/m2 CLR
02:11 21.9 °F /  -5.6 °C 18.7 °F /  -7.4 °C 30.5 in /  1031.7 hPa Calm     87 % 0 in /  0.0 mm 0.0 W/m2 CLR
02:16 21.9 °F /  -5.6 °C 18.7 °F /  -7.4 °C 30.5 in /  1031.7 hPa Calm     87 % 0 in /  0.0 mm 0.0 W/m2 CLR
02:26 21.9 °F /  -5.6 °C 18.7 °F /  -7.4 °C 30.5 in /  1031.7 hPa Calm     87 % 0 in /  0.0 mm 0.0 W/m2 CLR
02:31 21.9 °F /  -5.6 °C 18.5 °F /  -7.5 °C 30.5 in /  1031.7 hPa Calm     86 % 0 in /  0.0 mm 0.0 W/m2 CLR
02:36 23 °F /  -5.0 °C 19.4 °F /  -7.0 °C 30.5 in /  1031.7 hPa Calm     86 % 0 in /  0.0 mm 0.0 W/m2 CLR
02:41 23 °F /  -5.0 °C 19.4 °F /  -7.0 °C 30.5 in /  1031.7 hPa Calm     86 % 0 in /  0.0 mm 0.0 W/m2 CLR
02:46 23 °F /  -5.0 °C 19.4 °F /  -7.0 °C 30.5 in /  1031.7 hPa Calm     86 % 0 in /  0.0 mm 0.0 W/m2 CLR
02:51 23 °F /  -5.0 °C 19.4 °F /  -7.0 °C 30.5 in /  1031.4 hPa Calm     86 % 0 in /  0.0 mm 0.0 W/m2 CLR
03:01 23 °F /  -5.0 °C 19.8 °F /  -6.8 °C 30.5 in /  1031.4 hPa Calm     87 % 0 in /  0.0 mm 0.0 W/m2 CLR
03:16 24.1 °F /  -4.4 °C 20.7 °F /  -6.3 °C 30.5 in /  1031.4 hPa Calm     87 % 0 in /  0.0 mm 0.0 W/m2 CLR
03:21 23 °F /  -5.0 °C 19.8 °F /  -6.8 °C 30.5 in /  1031.7 hPa Calm     87 % 0 in /  0.0 mm 0.0 W/m2 CLR
03:31 23 °F /  -5.0 °C 19.9 °F /  -6.7 °C 30.5 in /  1031.4 hPa Calm     88 % 0 in /  0.0 mm 0.0 W/m2 CLR
03:36 24.1 °F /  -4.4 °C 21 °F /  -6.1 °C 30.5 in /  1031.4 hPa Calm     88 % 0 in /  0.0 mm 0.0 W/m2 CLR
03:41 24.1 °F /  -4.4 °C 20.7 °F /  -6.3 °C 30.5 in /  1031.4 hPa Calm     87 % 0 in /  0.0 mm 0.0 W/m2 CLR
03:51 25 °F /  -3.9 °C 21.7 °F /  -5.7 °C 30.5 in /  1031.4 hPa Calm     87 % 0 in /  0.0 mm 0.0 W/m2 CLR
04:01 25 °F /  -3.9 °C 21.7 °F /  -5.7 °C 30.4 in /  1031.0 hPa Calm     87 % 0 in /  0.0 mm 0.0 W/m2 CLR
04:06 26.1 °F /  -3.3 °C 22.6 °F /  -5.2 °C 30.4 in /  1031.0 hPa Calm     87 % 0 in /  0.0 mm 0.0 W/m2 CLR
04:19 26.1 °F /  -3.3 °C 22.6 °F /  -5.2 °C 30.4 in /  1031.0 hPa Calm     87 % 0 in /  0.0 mm 0.0 W/m2 CLR
04:21 26.1 °F /  -3.3 °C 22.6 °F /  -5.2 °C 30.4 in /  1031.0 hPa Calm     87 % 0 in /  0.0 mm 0.0 W/m2 CLR
04:22 26.1 °F /  -3.3 °C 22.6 °F /  -5.2 °C 30.4 in /  1031.0 hPa Calm     87 % 0 in /  0.0 mm 0.0 W/m2 CLR
04:26 27 °F /  -2.8 °C 23.4 °F /  -4.8 °C 30.4 in /  1030.7 hPa Calm     86 % 0 in /  0.0 mm 0.0 W/m2 CLR
04:31 27 °F /  -2.8 °C 23.4 °F /  -4.8 °C 30.4 in /  1030.7 hPa Calm     86 % 0 in /  0.0 mm 0.0 W/m2 CLR
04:37 27 °F /  -2.8 °C 23.4 °F /  -4.8 °C 30.4 in /  1030.7 hPa Calm     86 % 0 in /  0.0 mm 0.0 W/m2 CLR
04:47 27 °F /  -2.8 °C 23.4 °F /  -4.8 °C 30.4 in /  1030.7 hPa Calm     86 % 0 in /  0.0 mm 0.0 W/m2 CLR
04:52 27 °F /  -2.8 °C 23.2 °F /  -4.9 °C 30.4 in /  1030.7 hPa Calm     85 % 0 in /  0.0 mm 0.0 W/m2 CLR
04:57 27 °F /  -2.8 °C 23.2 °F /  -4.9 °C 30.4 in /  1030.4 hPa Calm     85 % 0 in /  0.0 mm 0.0 W/m2 CLR
05:02 26.1 °F /  -3.3 °C 22.1 °F /  -5.5 °C 30.4 in /  1030.4 hPa Calm     85 % 0 in /  0.0 mm 0.0 W/m2 CLR
05:12 26.1 °F /  -3.3 °C 22.1 °F /  -5.5 °C 30.4 in /  1030.4 hPa Calm     85 % 0 in /  0.0 mm 0.0 W/m2 CLR
05:22 26.1 °F /  -3.3 °C 22.1 °F /  -5.5 °C 30.4 in /  1030.0 hPa Calm     85 % 0 in /  0.0 mm 0.0 W/m2 CLR
05:27 26.1 °F /  -3.3 °C 22.1 °F /  -5.5 °C 30.4 in /  1030.0 hPa Calm     85 % 0 in /  0.0 mm 0.0 W/m2 CLR
05:32 26.1 °F /  -3.3 °C 22.5 °F /  -5.3 °C 30.4 in /  1030.0 hPa Calm   0.5 mph /  0.8 km/h 86 % 0 in /  0.0 mm 0.0 W/m2 CLR
05:37 27 °F /  -2.8 °C 23.5 °F /  -4.7 °C 30.4 in /  1030.0 hPa West 2.3 mph /  3.7 km/h 2.3 mph /  3.7 km/h 87 % 0 in /  0.0 mm 0.0 W/m2 CLR
05:42 27 °F /  -2.8 °C 23.4 °F /  -4.8 °C 30.4 in /  1030.0 hPa Calm     86 % 0 in /  0.0 mm 0.0 W/m2 CLR
05:47 27 °F /  -2.8 °C 23.4 °F /  -4.8 °C 30.4 in /  1030.0 hPa Calm     86 % 0 in /  0.0 mm 0.0 W/m2 CLR
05:52 27 °F /  -2.8 °C 23.4 °F /  -4.8 °C 30.4 in /  1030.0 hPa Calm     86 % 0 in /  0.0 mm 0.0 W/m2 CLR
05:57 27 °F /  -2.8 °C 23.4 °F /  -4.8 °C 30.4 in /  1030.0 hPa Calm     86 % 0 in /  0.0 mm 0.0 W/m2 CLR
06:02 27 °F /  -2.8 °C 23.4 °F /  -4.8 °C 30.4 in /  1029.7 hPa Calm     86 % 0 in /  0.0 mm 0.0 W/m2 CLR
06:07 27 °F /  -2.8 °C 23.4 °F /  -4.8 °C 30.4 in /  1030.0 hPa Calm     86 % 0 in /  0.0 mm 0.0 W/m2 CLR
06:17 27 °F /  -2.8 °C 23.5 °F /  -4.7 °C 30.4 in /  1029.7 hPa Calm     87 % 0 in /  0.0 mm 0.0 W/m2 CLR
06:27 28 °F /  -2.2 °C 24.1 °F /  -4.4 °C 30.4 in /  1029.7 hPa Calm     85 % 0 in /  0.0 mm 0.0 W/m2 CLR
06:32 28 °F /  -2.2 °C 24.1 °F /  -4.4 °C 30.4 in /  1029.7 hPa Calm     85 % 0 in /  0.0 mm 0.0 W/m2 CLR
06:37 28 °F /  -2.2 °C 23.5 °F /  -4.7 °C 30.4 in /  1029.7 hPa Calm     83 % 0 in /  0.0 mm 0.0 W/m2 CLR
06:39 28 °F /  -2.2 °C 23.5 °F /  -4.7 °C 30.4 in /  1029.7 hPa Calm     83 % 0 in /  0.0 mm 0.0 W/m2 CLR
06:44 28 °F /  -2.2 °C 23.5 °F /  -4.7 °C 30.4 in /  1029.7 hPa Calm     83 % 0 in /  0.0 mm 0.0 W/m2 CLR
06:49 28 °F /  -2.2 °C 23.5 °F /  -4.7 °C 30.4 in /  1029.7 hPa Calm     83 % 0 in /  0.0 mm 0.0 W/m2 CLR
06:54 28 °F /  -2.2 °C 23.2 °F /  -4.9 °C 30.4 in /  1029.7 hPa East 2.3 mph /  3.7 km/h 2.3 mph /  3.7 km/h 82 % 0 in /  0.0 mm 0.0 W/m2 CLR
06:59 28.9 °F /  -1.7 °C 23.9 °F /  -4.5 °C 30.4 in /  1029.7 hPa Calm     81 % 0 in /  0.0 mm 0.0 W/m2 CLR
07:04 28.9 °F /  -1.7 °C 23.9 °F /  -4.5 °C 30.4 in /  1029.7 hPa Calm     81 % 0 in /  0.0 mm 0.0 W/m2 CLR
07:09 28.9 °F /  -1.7 °C 23.5 °F /  -4.7 °C 30.4 in /  1029.7 hPa Calm     80 % 0 in /  0.0 mm 0.0 W/m2 CLR
07:14 28.9 °F /  -1.7 °C 23.4 °F /  -4.8 °C 30.4 in /  1029.7 hPa Calm     79 % 0 in /  0.0 mm 0.0 W/m2 CLR
07:19 28.9 °F /  -1.7 °C 23 °F /  -5.0 °C 30.4 in /  1029.7 hPa Calm     78 % 0 in /  0.0 mm 0.0 W/m2 CLR
07:24 28.9 °F /  -1.7 °C 23 °F /  -5.0 °C 30.4 in /  1029.7 hPa Calm     78 % 0 in /  0.0 mm 0.0 W/m2 CLR
07:29 28.9 °F /  -1.7 °C 23 °F /  -5.0 °C 30.4 in /  1029.7 hPa Calm     78 % 0 in /  0.0 mm 0.0 W/m2 CLR
07:34 28.9 °F /  -1.7 °C 23 °F /  -5.0 °C 30.4 in /  1029.7 hPa Calm     78 % 0 in /  0.0 mm 0.0 W/m2 CLR
07:39 28.9 °F /  -1.7 °C 23 °F /  -5.0 °C 30.4 in /  1029.7 hPa Calm     78 % 0 in /  0.0 mm 0.0 W/m2 CLR
07:44 30 °F /  -1.1 °C 24.3 °F /  -4.3 °C 30.4 in /  1029.7 hPa Calm     79 % 0 in /  0.0 mm 0.0 W/m2 CLR
07:49 30 °F /  -1.1 °C 24.3 °F /  -4.3 °C 30.4 in /  1029.7 hPa Calm     79 % 0 in /  0.0 mm 0.0 W/m2 CLR
07:59 28.9 °F /  -1.7 °C 23 °F /  -5.0 °C 30.4 in /  1029.7 hPa Calm     78 % 0 in /  0.0 mm 0.0 W/m2 CLR
08:04 28.9 °F /  -1.7 °C 23.4 °F /  -4.8 °C 30.4 in /  1029.7 hPa Calm     79 % 0 in /  0.0 mm 0.0 W/m2 OVC
08:09 28.9 °F /  -1.7 °C 23.5 °F /  -4.7 °C 30.4 in /  1029.7 hPa Calm     80 % 0 in /  0.0 mm 0.0 W/m2 OVC
08:14 28.9 °F /  -1.7 °C 23.4 °F /  -4.8 °C 30.4 in /  1029.7 hPa Calm     79 % 0 in /  0.0 mm 0.0 W/m2 OVC
08:19 28.9 °F /  -1.7 °C 23.4 °F /  -4.8 °C 30.4 in /  1029.7 hPa Calm     79 % 0 in /  0.0 mm 5.0 W/m2 OVC
08:24 28.9 °F /  -1.7 °C 23.5 °F /  -4.7 °C 30.4 in /  1029.7 hPa Calm     80 % 0 in /  0.0 mm 9.0 W/m2 BKN
08:29 28.9 °F /  -1.7 °C 23.5 °F /  -4.7 °C 30.4 in /  1029.7 hPa Calm     80 % 0 in /  0.0 mm 14.0 W/m2 BKN
08:34 28.9 °F /  -1.7 °C 23.4 °F /  -4.8 °C 30.4 in /  1029.7 hPa Calm     79 % 0 in /  0.0 mm 18.0 W/m2 BKN
08:39 28.9 °F /  -1.7 °C 23.4 °F /  -4.8 °C 30.4 in /  1029.7 hPa Calm     79 % 0 in /  0.0 mm 23.0 W/m2 BKN
08:44 28.9 °F /  -1.7 °C 23.4 °F /  -4.8 °C 30.4 in /  1029.7 hPa Calm     79 % 0 in /  0.0 mm 21.0 W/m2 BKN
08:49 28.9 °F /  -1.7 °C 23 °F /  -5.0 °C 30.4 in /  1029.7 hPa Calm     78 % 0 in /  0.0 mm 18.0 W/m2 BKN
08:54 28.9 °F /  -1.7 °C 23 °F /  -5.0 °C 30.4 in /  1029.7 hPa Calm     78 % 0 in /  0.0 mm 19.0 W/m2 BKN
08:59 30 °F /  -1.1 °C 24.1 °F /  -4.4 °C 30.4 in /  1029.7 hPa Calm     78 % 0 in /  0.0 mm 14.0 W/m2 BKN
09:04 30 °F /  -1.1 °C 24.3 °F /  -4.3 °C 30.4 in /  1029.7 hPa Calm     79 % 0 in /  0.0 mm 16.0 W/m2 BKN
09:09 30 °F /  -1.1 °C 24.3 °F /  -4.3 °C 30.4 in /  1029.7 hPa Calm     79 % 0 in /  0.0 mm 21.0 W/m2 BKN
09:14 30 °F /  -1.1 °C 24.6 °F /  -4.1 °C 30.4 in /  1029.7 hPa Calm     80 % 0 in /  0.0 mm 18.0 W/m2 BKN
09:19 30 °F /  -1.1 °C 24.6 °F /  -4.1 °C 30.4 in /  1029.7 hPa Calm     80 % 0 in /  0.0 mm 19.0 W/m2 BKN
09:24 28.9 °F /  -1.7 °C 23.9 °F /  -4.5 °C 30.4 in /  1029.7 hPa Calm     81 % 0 in /  0.0 mm 23.0 W/m2 BKN
09:29 28.9 °F /  -1.7 °C 23.9 °F /  -4.5 °C 30.4 in /  1029.7 hPa Calm     81 % 0 in /  0.0 mm 26.0 W/m2 BKN
09:34 28.9 °F /  -1.7 °C 24.3 °F /  -4.3 °C 30.4 in /  1029.7 hPa Calm     82 % 0 in /  0.0 mm 132.0 W/m2 SCT
09:39 30 °F /  -1.1 °C 25.2 °F /  -3.8 °C 30.4 in /  1029.7 hPa Calm     82 % 0 in /  0.0 mm 130.0 W/m2 CLR
09:44 30 °F /  -1.1 °C 25.2 °F /  -3.8 °C 30.4 in /  1029.7 hPa Calm     82 % 0 in /  0.0 mm 163.0 W/m2 CLR
09:49 30 °F /  -1.1 °C 24.3 °F /  -4.3 °C 30.4 in /  1030.0 hPa Calm     79 % 0 in /  0.0 mm 181.0 W/m2 CLR
09:54 30.9 °F /  -0.6 °C 24.6 °F /  -4.1 °C 30.4 in /  1030.0 hPa Calm     77 % 0 in /  0.0 mm 181.0 W/m2 CLR
09:59 30.9 °F /  -0.6 °C 24.6 °F /  -4.1 °C 30.4 in /  1030.0 hPa Calm     77 % 0 in /  0.0 mm 207.0 W/m2 CLR
10:04 33.1 °F /  0.6 °C 25.9 °F /  -3.4 °C 30.4 in /  1030.0 hPa Calm     75 % 0 in /  0.0 mm 237.0 W/m2 CLR
10:09 34 °F /  1.1 °C 26.2 °F /  -3.2 °C 30.4 in /  1030.0 hPa Calm     73 % 0 in /  0.0 mm 258.0 W/m2 CLR
10:14 36 °F /  2.2 °C 27.5 °F /  -2.5 °C 30.4 in /  1030.0 hPa Calm     71 % 0 in /  0.0 mm 151.0 W/m2 CLR
10:19 37 °F /  2.8 °C 28 °F /  -2.2 °C 30.4 in /  1030.0 hPa WNW 3.5 mph /  5.6 km/h 3.5 mph /  5.6 km/h 70 % 0 in /  0.0 mm 176.0 W/m2 CLR
10:24 37.9 °F /  3.3 °C 28.8 °F /  -1.8 °C 30.4 in /  1029.7 hPa NW 6.9 mph /  11.1 km/h 6.9 mph /  11.1 km/h 69 % 0 in /  0.0 mm 192.0 W/m2 CLR
10:29 39.9 °F /  4.4 °C 29.1 °F /  -1.6 °C 30.4 in /  1029.7 hPa NW 6.9 mph /  11.1 km/h 6.9 mph /  11.1 km/h 65 % 0 in /  0.0 mm 176.0 W/m2 CLR
10:34 42.1 °F /  5.6 °C 30.7 °F /  -0.7 °C 30.4 in /  1029.7 hPa NW 3.5 mph /  5.6 km/h 3.5 mph /  5.6 km/h 64 % 0 in /  0.0 mm 301.0 W/m2 CLR
10:39 44.1 °F /  6.7 °C 32.2 °F /  0.1 °C 30.4 in /  1029.7 hPa NW 10.4 mph /  16.7 km/h 10.4 mph /  16.7 km/h 63 % 0 in /  0.0 mm 148.0 W/m2 CLR
10:44 45 °F /  7.2 °C 33.3 °F /  0.7 °C 30.4 in /  1029.7 hPa NNW 8.1 mph /  13.0 km/h 8.1 mph /  13.0 km/h 63 % 0 in /  0.0 mm 216.0 W/m2 CLR
10:54 48.9 °F /  9.4 °C 36.5 °F /  2.5 °C 30.4 in /  1029.7 hPa NW 8.1 mph /  13.0 km/h 8.1 mph /  13.0 km/h 62 % 0 in /  0.0 mm 264.0 W/m2 CLR
10:59 50 °F /  10.0 °C 37.6 °F /  3.1 °C 30.4 in /  1029.7 hPa NW 12.7 mph /  20.4 km/h 12.7 mph /  20.4 km/h 62 % 0 in /  0.0 mm 171.0 W/m2 CLR
11:04 51.1 °F /  10.6 °C 38.5 °F /  3.6 °C 30.4 in /  1030.0 hPa North 10.4 mph /  16.7 km/h 10.4 mph /  16.7 km/h 62 % 0 in /  0.0 mm 202.0 W/m2 CLR
11:09 51.1 °F /  10.6 °C 38.5 °F /  3.6 °C 30.4 in /  1030.0 hPa North 13 mph /  20.9 km/h 13 mph /  20.9 km/h 62 % 0 in /  0.0 mm 155.0 W/m2 CLR
11:14 51.1 °F /  10.6 °C 38.5 °F /  3.6 °C 30.4 in /  1029.7 hPa NNW 12.7 mph /  20.4 km/h 12.7 mph /  20.4 km/h 62 % 0 in /  0.0 mm 155.0 W/m2 CLR
11:19 51.1 °F /  10.6 °C 38.8 °F /  3.8 °C 30.4 in /  1029.7 hPa NNW 11.5 mph /  18.5 km/h 11.5 mph /  18.5 km/h 63 % 0 in /  0.0 mm 151.0 W/m2 CLR
11:24 51.1 °F /  10.6 °C 38.8 °F /  3.8 °C 30.4 in /  1029.7 hPa North 10.4 mph /  16.7 km/h 10.4 mph /  16.7 km/h 63 % 0 in /  0.0 mm 178.0 W/m2 CLR
11:29 51.1 °F /  10.6 °C 38.8 °F /  3.8 °C 30.4 in /  1029.7 hPa North 11.5 mph /  18.5 km/h 11.5 mph /  18.5 km/h 63 % 0 in /  0.0 mm 230.0 W/m2 CLR
11:34 52 °F /  11.1 °C 39.7 °F /  4.3 °C 30.4 in /  1029.7 hPa North 11.5 mph /  18.5 km/h 11.5 mph /  18.5 km/h 63 % 0 in /  0.0 mm 248.0 W/m2 CLR
11:39 52 °F /  11.1 °C 39.7 °F /  4.3 °C 30.4 in /  1029.7 hPa North 12 mph /  19.3 km/h 12 mph /  19.3 km/h 63 % 0 in /  0.0 mm 190.0 W/m2 CLR
11:44 52 °F /  11.1 °C 39.7 °F /  4.3 °C 30.4 in /  1029.3 hPa NNW 15 mph /  24.1 km/h 15 mph /  24.1 km/h 63 % 0 in /  0.0 mm 178.0 W/m2 CLR
11:49 52 °F /  11.1 °C 39.7 °F /  4.3 °C 30.4 in /  1029.3 hPa North 11.5 mph /  18.5 km/h 11.5 mph /  18.5 km/h 63 % 0 in /  0.0 mm 176.0 W/m2 CLR
11:54 52 °F /  11.1 °C 39.7 °F /  4.3 °C 30.4 in /  1029.3 hPa North 12 mph /  19.3 km/h 12 mph /  19.3 km/h 63 % 0 in /  0.0 mm 190.0 W/m2 CLR
11:59 52 °F /  11.1 °C 39.7 °F /  4.3 °C 30.4 in /  1029.3 hPa NNW 12 mph /  19.3 km/h 12 mph /  19.3 km/h 63 % 0 in /  0.0 mm 204.0 W/m2 CLR
12:04 52 °F /  11.1 °C 39.7 °F /  4.3 °C 30.4 in /  1029.3 hPa NNW 10.4 mph /  16.7 km/h 10.4 mph /  16.7 km/h 63 % 0 in /  0.0 mm 197.0 W/m2 CLR
12:09 52 °F /  11.1 °C 39.7 °F /  4.3 °C 30.4 in /  1029.3 hPa NNW 11.5 mph /  18.5 km/h 11.5 mph /  18.5 km/h 63 % 0 in /  0.0 mm 202.0 W/m2 CLR
12:14 53.1 °F /  11.7 °C 40.6 °F /  4.8 °C 30.4 in /  1029.0 hPa North 8.1 mph /  13.0 km/h 8.1 mph /  13.0 km/h 63 % 0 in /  0.0 mm 223.0 W/m2 CLR
12:19 53.1 °F /  11.7 °C 40.3 °F /  4.6 °C 30.4 in /  1029.0 hPa North 16 mph /  25.7 km/h 16 mph /  25.7 km/h 62 % 0 in /  0.0 mm 308.0 W/m2 CLR
12:24 53.1 °F /  11.7 °C 40.3 °F /  4.6 °C 30.4 in /  1029.0 hPa NNW 17 mph /  27.4 km/h 17 mph /  27.4 km/h 62 % 0 in /  0.0 mm 339.0 W/m2 CLR
12:29 54 °F /  12.2 °C 41.4 °F /  5.2 °C 30.4 in /  1028.7 hPa NNW 18.4 mph /  29.6 km/h 18.4 mph /  29.6 km/h 62 % 0 in /  0.0 mm 302.0 W/m2 CLR
12:34 54 °F /  12.2 °C 41.4 °F /  5.2 °C 30.4 in /  1028.7 hPa North 15 mph /  24.1 km/h 15 mph /  24.1 km/h 62 % 0 in /  0.0 mm 329.0 W/m2 CLR
12:39 54 °F /  12.2 °C 40.8 °F /  4.9 °C 30.4 in /  1028.7 hPa NNE 12 mph /  19.3 km/h 12 mph /  19.3 km/h 61 % 0 in /  0.0 mm 318.0 W/m2 CLR
12:44 54 °F /  12.2 °C 40.8 °F /  4.9 °C 30.4 in /  1028.3 hPa North 10.4 mph /  16.7 km/h 10.4 mph /  16.7 km/h 61 % 0 in /  0.0 mm 239.0 W/m2 CLR
12:49 53.1 °F /  11.7 °C 39.6 °F /  4.2 °C 30.4 in /  1028.3 hPa NNW 9.2 mph /  14.8 km/h 9.2 mph /  14.8 km/h 60 % 0 in /  0.0 mm 220.0 W/m2 CLR
12:54 53.1 °F /  11.7 °C 39.6 °F /  4.2 °C 30.4 in /  1028.3 hPa NNW 11.5 mph /  18.5 km/h 11.5 mph /  18.5 km/h 60 % 0 in /  0.0 mm 234.0 W/m2 CLR
13:00 54 °F /  12.2 °C 40.5 °F /  4.7 °C 30.4 in /  1028.3 hPa NNW 12.7 mph /  20.4 km/h 12.7 mph /  20.4 km/h 60 % 0 in /  0.0 mm 193.0 W/m2 CLR
13:05 53.1 °F /  11.7 °C 39.9 °F /  4.4 °C 30.4 in /  1028.3 hPa NNW 15 mph /  24.1 km/h 15 mph /  24.1 km/h 61 % 0 in /  0.0 mm 209.0 W/m2 CLR
13:10 53.1 °F /  11.7 °C 39.9 °F /  4.4 °C 30.4 in /  1028.3 hPa NW 11.5 mph /  18.5 km/h 11.5 mph /  18.5 km/h 61 % 0 in /  0.0 mm 195.0 W/m2 CLR
13:15 54 °F /  12.2 °C 41.4 °F /  5.2 °C 30.4 in /  1028.0 hPa NW 13 mph /  20.9 km/h 13 mph /  20.9 km/h 62 % 0 in /  0.0 mm 167.0 W/m2 CLR
13:20 54 °F /  12.2 °C 41.4 °F /  5.2 °C 30.4 in /  1028.0 hPa NNW 16.1 mph /  25.9 km/h 16.1 mph /  25.9 km/h 62 % 0 in /  0.0 mm 158.0 W/m2 CLR
13:25 54 °F /  12.2 °C 40.8 °F /  4.9 °C 30.4 in /  1028.0 hPa North 13.8 mph /  22.2 km/h 13.8 mph /  22.2 km/h 61 % 0 in /  0.0 mm 279.0 W/m2 CLR
13:30 55 °F /  12.8 °C 41.7 °F /  5.4 °C 30.4 in /  1028.0 hPa NNW 14 mph /  22.5 km/h 14 mph /  22.5 km/h 61 % 0 in /  0.0 mm 320.0 W/m2 CLR
13:35 55 °F /  12.8 °C 41.7 °F /  5.4 °C 30.4 in /  1028.0 hPa NNW 13 mph /  20.9 km/h 13 mph /  20.9 km/h 61 % 0 in /  0.0 mm 336.0 W/m2 CLR
13:40 55.9 °F /  13.3 °C 41.9 °F /  5.5 °C 30.4 in /  1027.7 hPa NNW 14 mph /  22.5 km/h 14 mph /  22.5 km/h 59 % 0 in /  0.0 mm 378.0 W/m2 CLR
13:45 57 °F /  13.9 °C 42.8 °F /  6.0 °C 30.4 in /  1027.7 hPa NNW 16 mph /  25.7 km/h 16 mph /  25.7 km/h 59 % 0 in /  0.0 mm 461.0 W/m2 CLR
13:50 57 °F /  13.9 °C 42.8 °F /  6.0 °C 30.4 in /  1027.7 hPa NNW 16 mph /  25.7 km/h 16 mph /  25.7 km/h 59 % 0 in /  0.0 mm 466.0 W/m2 CLR
13:55 57 °F /  13.9 °C 42.4 °F /  5.8 °C 30.3 in /  1027.3 hPa NNW 17.3 mph /  27.8 km/h 17.3 mph /  27.8 km/h 58 % 0 in /  0.0 mm 436.0 W/m2 CLR
14:00 57.9 °F /  14.4 °C 43.3 °F /  6.3 °C 30.3 in /  1027.3 hPa NNW 15 mph /  24.1 km/h 15 mph /  24.1 km/h 58 % 0 in /  0.0 mm 338.0 W/m2 CLR
14:05 57 °F /  13.9 °C 42.8 °F /  6.0 °C 30.4 in /  1027.7 hPa NNW 18.4 mph /  29.6 km/h 18.4 mph /  29.6 km/h 59 % 0 in /  0.0 mm 272.0 W/m2 CLR
14:10 57 °F /  13.9 °C 42.8 °F /  6.0 °C 30.4 in /  1027.7 hPa NNW 12.7 mph /  20.4 km/h 12.7 mph /  20.4 km/h 59 % 0 in /  0.0 mm 244.0 W/m2 CLR
14:15 57 °F /  13.9 °C 42.8 °F /  6.0 °C 30.3 in /  1027.3 hPa North 12 mph /  19.3 km/h 12 mph /  19.3 km/h 59 % 0 in /  0.0 mm 176.0 W/m2 CLR
14:25 55.9 °F /  13.3 °C 42.3 °F /  5.7 °C 30.4 in /  1027.7 hPa NNW 21.9 mph /  35.2 km/h 21.9 mph /  35.2 km/h 60 % 0 in /  0.0 mm 183.0 W/m2 CLR
14:30 55.9 °F /  13.3 °C 41.9 °F /  5.5 °C 30.3 in /  1027.3 hPa NW 17.3 mph /  27.8 km/h 17.3 mph /  27.8 km/h 59 % 0 in /  0.0 mm 172.0 W/m2 CLR
14:35 55.9 °F /  13.3 °C 41.9 °F /  5.5 °C 30.3 in /  1027.3 hPa North 19 mph /  30.6 km/h 19 mph /  30.6 km/h 59 % 0 in /  0.0 mm 127.0 W/m2 CLR
14:40 55.9 °F /  13.3 °C 42.3 °F /  5.7 °C 30.3 in /  1027.3 hPa NNW 17.3 mph /  27.8 km/h 17.3 mph /  27.8 km/h 60 % 0 in /  0.0 mm 127.0 W/m2 CLR
14:45 55.9 °F /  13.3 °C 42.6 °F /  5.9 °C 30.3 in /  1027.3 hPa NNW 20 mph /  32.2 km/h 20 mph /  32.2 km/h 61 % 0 in /  0.0 mm 104.0 W/m2 CLR
14:50 55.9 °F /  13.3 °C 42.6 °F /  5.9 °C 30.3 in /  1027.3 hPa NNW 24.2 mph /  38.9 km/h 24.2 mph /  38.9 km/h 61 % 0 in /  0.0 mm 130.0 W/m2 CLR
14:55 55.9 °F /  13.3 °C 42.6 °F /  5.9 °C 30.3 in /  1027.3 hPa North 23 mph /  37.0 km/h 23 mph /  37.0 km/h 61 % 0 in /  0.0 mm 153.0 W/m2 CLR
15:00 55.9 °F /  13.3 °C 42.6 °F /  5.9 °C 30.3 in /  1027.0 hPa NNW 20.7 mph /  33.3 km/h 20.7 mph /  33.3 km/h 61 % 0 in /  0.0 mm 130.0 W/m2 CLR
15:05 55.9 °F /  13.3 °C 42.6 °F /  5.9 °C 30.3 in /  1027.0 hPa North 19 mph /  30.6 km/h 19 mph /  30.6 km/h 61 % 0 in /  0.0 mm 118.0 W/m2 CLR
15:10 55.9 °F /  13.3 °C 42.6 °F /  5.9 °C 30.3 in /  1027.0 hPa North 18 mph /  29.0 km/h 18 mph /  29.0 km/h 61 % 0 in /  0.0 mm 113.0 W/m2 CLR
15:15 55 °F /  12.8 °C 42.3 °F /  5.7 °C 30.3 in /  1027.0 hPa NNW 16.1 mph /  25.9 km/h 16.1 mph /  25.9 km/h 62 % 0 in /  0.0 mm 105.0 W/m2 CLR
15:20 55 °F /  12.8 °C 42.3 °F /  5.7 °C 30.3 in /  1027.0 hPa NW 16.1 mph /  25.9 km/h 16.1 mph /  25.9 km/h 62 % 0 in /  0.0 mm 148.0 W/m2 CLR
15:25 55 °F /  12.8 °C 42.3 °F /  5.7 °C 30.3 in /  1027.0 hPa NW 19.6 mph /  31.5 km/h 19.6 mph /  31.5 km/h 62 % 0 in /  0.0 mm 105.0 W/m2 CLR
15:30 55 °F /  12.8 °C 42.3 °F /  5.7 °C 30.3 in /  1027.0 hPa NNW 19.6 mph /  31.5 km/h 19.6 mph /  31.5 km/h 62 % 0 in /  0.0 mm 113.0 W/m2 CLR
15:35 55.9 °F /  13.3 °C 43.2 °F /  6.2 °C 30.3 in /  1026.6 hPa NNW 18 mph /  29.0 km/h 18 mph /  29.0 km/h 62 % 0 in /  0.0 mm 306.0 W/m2 CLR
15:40 57 °F /  13.9 °C 43.7 °F /  6.5 °C 30.3 in /  1026.6 hPa North 20.7 mph /  33.3 km/h 20.7 mph /  33.3 km/h 61 % 0 in /  0.0 mm 309.0 W/m2 CLR
15:45 57 °F /  13.9 °C 43.2 °F /  6.2 °C 30.3 in /  1026.6 hPa NNW 21.9 mph /  35.2 km/h 21.9 mph /  35.2 km/h 60 % 0 in /  0.0 mm 318.0 W/m2 CLR
15:50 57 °F /  13.9 °C 43.2 °F /  6.2 °C 30.3 in /  1026.6 hPa NNW 22 mph /  35.4 km/h 22 mph /  35.4 km/h 60 % 0 in /  0.0 mm 304.0 W/m2 CLR
15:55 57 °F /  13.9 °C 43.2 °F /  6.2 °C 30.3 in /  1026.6 hPa NW 15 mph /  24.1 km/h 15 mph /  24.1 km/h 60 % 0 in /  0.0 mm 192.0 W/m2 CLR
16:00 57 °F /  13.9 °C 43.2 °F /  6.2 °C 30.3 in /  1026.6 hPa North 19.6 mph /  31.5 km/h 19.6 mph /  31.5 km/h 60 % 0 in /  0.0 mm 153.0 W/m2 CLR
16:05 57 °F /  13.9 °C 43.2 °F /  6.2 °C 30.3 in /  1026.6 hPa NNW 23 mph /  37.0 km/h 23 mph /  37.0 km/h 60 % 0 in /  0.0 mm 125.0 W/m2 CLR
16:10 55.9 °F /  13.3 °C 42.3 °F /  5.7 °C 30.3 in /  1026.6 hPa NNW 24.2 mph /  38.9 km/h 24.2 mph /  38.9 km/h 60 % 0 in /  0.0 mm 90.0 W/m2 CLR
16:15 55.9 °F /  13.3 °C 42.6 °F /  5.9 °C 30.3 in /  1026.6 hPa NW 18.4 mph /  29.6 km/h 18.4 mph /  29.6 km/h 61 % 0 in /  0.0 mm 60.0 W/m2 CLR
16:20 55.9 °F /  13.3 °C 42.6 °F /  5.9 °C 30.3 in /  1026.6 hPa NNW 20.7 mph /  33.3 km/h 20.7 mph /  33.3 km/h 61 % 0 in /  0.0 mm 58.0 W/m2 FEW
16:25 55 °F /  12.8 °C 42.3 °F /  5.7 °C 30.3 in /  1026.6 hPa North 19.6 mph /  31.5 km/h 19.6 mph /  31.5 km/h 62 % 0 in /  0.0 mm 86.0 W/m2 SCT
16:30 55 °F /  12.8 °C 42.3 °F /  5.7 °C 30.3 in /  1026.6 hPa NW 15 mph /  24.1 km/h 15 mph /  24.1 km/h 62 % 0 in /  0.0 mm 114.0 W/m2 FEW
16:35 55 °F /  12.8 °C 41.7 °F /  5.4 °C 30.3 in /  1026.6 hPa NNW 18.4 mph /  29.6 km/h 18.4 mph /  29.6 km/h 61 % 0 in /  0.0 mm 109.0 W/m2 CLR
16:40 55 °F /  12.8 °C 41.7 °F /  5.4 °C 30.3 in /  1026.6 hPa NW 13.8 mph /  22.2 km/h 13.8 mph /  22.2 km/h 61 % 0 in /  0.0 mm 109.0 W/m2 CLR
16:45 55 °F /  12.8 °C 42.3 °F /  5.7 °C 30.3 in /  1026.6 hPa NNW 18.4 mph /  29.6 km/h 18.4 mph /  29.6 km/h 62 % 0 in /  0.0 mm 91.0 W/m2 CLR
16:50 55 °F /  12.8 °C 42.3 °F /  5.7 °C 30.3 in /  1027.0 hPa NNW 21.9 mph /  35.2 km/h 21.9 mph /  35.2 km/h 62 % 0 in /  0.0 mm 49.0 W/m2 SCT
17:00 55 °F /  12.8 °C 42.6 °F /  5.9 °C 30.3 in /  1027.0 hPa NW 19.6 mph /  31.5 km/h 19.6 mph /  31.5 km/h 63 % 0 in /  0.0 mm 39.0 W/m2 SCT
17:10 55 °F /  12.8 °C 43 °F /  6.1 °C 30.3 in /  1027.0 hPa North 19.6 mph /  31.5 km/h 19.6 mph /  31.5 km/h 64 % 0 in /  0.0 mm 23.0 W/m2 BKN
17:15 54 °F /  12.2 °C 42.1 °F /  5.6 °C 30.3 in /  1027.0 hPa NNW 19.6 mph /  31.5 km/h 19.6 mph /  31.5 km/h 64 % 0 in /  0.0 mm 18.0 W/m2 BKN
17:20 54 °F /  12.2 °C 42.1 °F /  5.6 °C 30.3 in /  1027.0 hPa NW 15 mph /  24.1 km/h 15 mph /  24.1 km/h 64 % 0 in /  0.0 mm 11.0 W/m2 BKN
17:25 54 °F /  12.2 °C 42.1 °F /  5.6 °C 30.3 in /  1027.0 hPa NW 18.4 mph /  29.6 km/h 18.4 mph /  29.6 km/h 64 % 0 in /  0.0 mm 7.0 W/m2 BKN
17:30 54 °F /  12.2 °C 42.4 °F /  5.8 °C 30.3 in /  1027.0 hPa NNW 16.1 mph /  25.9 km/h 16.1 mph /  25.9 km/h 65 % 0 in /  0.0 mm 5.0 W/m2 OVC
17:35 54 °F /  12.2 °C 42.4 °F /  5.8 °C 30.3 in /  1027.0 hPa NW 16 mph /  25.7 km/h 16 mph /  25.7 km/h 65 % 0 in /  0.0 mm 0.0 W/m2 OVC
17:40 54 °F /  12.2 °C 42.4 °F /  5.8 °C 30.3 in /  1027.0 hPa NW 15 mph /  24.1 km/h 15 mph /  24.1 km/h 65 % 0 in /  0.0 mm 0.0 W/m2 OVC
17:45 53.1 °F /  11.7 °C 41.5 °F /  5.3 °C 30.3 in /  1027.0 hPa NW 13.8 mph /  22.2 km/h 13.8 mph /  22.2 km/h 65 % 0 in /  0.0 mm 0.0 W/m2 CLR
17:50 53.1 °F /  11.7 °C 41.5 °F /  5.3 °C 30.3 in /  1027.0 hPa NW 19.6 mph /  31.5 km/h 19.6 mph /  31.5 km/h 65 % 0 in /  0.0 mm 0.0 W/m2 CLR
17:55 53.1 °F /  11.7 °C 41.5 °F /  5.3 °C 30.3 in /  1027.3 hPa North 16.1 mph /  25.9 km/h 16.1 mph /  25.9 km/h 65 % 0 in /  0.0 mm 0.0 W/m2 CLR
18:00 53.1 °F /  11.7 °C 41.9 °F /  5.5 °C 30.3 in /  1027.0 hPa North 12 mph /  19.3 km/h 12 mph /  19.3 km/h 66 % 0 in /  0.0 mm 0.0 W/m2 CLR
18:05 53.1 °F /  11.7 °C 41.9 °F /  5.5 °C 30.3 in /  1027.3 hPa NNW 9.2 mph /  14.8 km/h 9.2 mph /  14.8 km/h 66 % 0 in /  0.0 mm 0.0 W/m2 CLR
18:10 53.1 °F /  11.7 °C 41.9 °F /  5.5 °C 30.3 in /  1027.0 hPa NW 12.7 mph /  20.4 km/h 12.7 mph /  20.4 km/h 66 % 0 in /  0.0 mm 0.0 W/m2 CLR
18:15 52 °F /  11.1 °C 41.4 °F /  5.2 °C 30.3 in /  1027.0 hPa NNW 17.3 mph /  27.8 km/h 17.3 mph /  27.8 km/h 67 % 0 in /  0.0 mm 0.0 W/m2 CLR
18:20 52 °F /  11.1 °C 41.4 °F /  5.2 °C 30.3 in /  1027.0 hPa North 17.3 mph /  27.8 km/h 17.3 mph /  27.8 km/h 67 % 0 in /  0.0 mm 0.0 W/m2 CLR
18:25 52 °F /  11.1 °C 41.7 °F /  5.4 °C 30.3 in /  1027.0 hPa North 19.6 mph /  31.5 km/h 19.6 mph /  31.5 km/h 68 % 0 in /  0.0 mm 0.0 W/m2 CLR
18:30 52 °F /  11.1 °C 42.1 °F /  5.6 °C 30.3 in /  1027.0 hPa NNW 19.6 mph /  31.5 km/h 19.6 mph /  31.5 km/h 69 % 0 in /  0.0 mm 0.0 W/m2 CLR
18:35 52 °F /  11.1 °C 42.1 °F /  5.6 °C 30.3 in /  1027.0 hPa NNW 18.4 mph /  29.6 km/h 18.4 mph /  29.6 km/h 69 % 0 in /  0.0 mm 0.0 W/m2 CLR
18:40 52 °F /  11.1 °C 42.1 °F /  5.6 °C 30.3 in /  1027.0 hPa NNW 16.1 mph /  25.9 km/h 16.1 mph /  25.9 km/h 69 % 0 in /  0.0 mm 0.0 W/m2 CLR
18:45 52 °F /  11.1 °C 42.4 °F /  5.8 °C 30.3 in /  1027.0 hPa North 18.4 mph /  29.6 km/h 18.4 mph /  29.6 km/h 70 % 0 in /  0.0 mm 0.0 W/m2 CLR
18:50 52 °F /  11.1 °C 42.4 °F /  5.8 °C 30.3 in /  1027.0 hPa NNE 12 mph /  19.3 km/h 12 mph /  19.3 km/h 70 % 0 in /  0.0 mm 0.0 W/m2 CLR
18:55 52 °F /  11.1 °C 42.4 °F /  5.8 °C 30.3 in /  1027.0 hPa North 10.4 mph /  16.7 km/h 10.4 mph /  16.7 km/h 70 % 0 in /  0.0 mm 0.0 W/m2 CLR
19:00 52 °F /  11.1 °C 42.4 °F /  5.8 °C 30.3 in /  1027.0 hPa North 19.6 mph /  31.5 km/h 19.6 mph /  31.5 km/h 70 % 0 in /  0.0 mm 0.0 W/m2 CLR
19:05 52 °F /  11.1 °C 42.4 °F /  5.8 °C 30.3 in /  1027.0 hPa NNW 20 mph /  32.2 km/h 20 mph /  32.2 km/h 70 % 0 in /  0.0 mm 0.0 W/m2 CLR
19:10 52 °F /  11.1 °C 42.4 °F /  5.8 °C 30.3 in /  1027.3 hPa NNW 24 mph /  38.6 km/h 24 mph /  38.6 km/h 70 % 0 in /  0.0 mm 0.0 W/m2 CLR
19:15 52 °F /  11.1 °C 42.4 °F /  5.8 °C 30.3 in /  1027.0 hPa NW 16.1 mph /  25.9 km/h 16.1 mph /  25.9 km/h 70 % 0 in /  0.0 mm 0.0 W/m2 CLR
19:20 52 °F /  11.1 °C 42.4 °F /  5.8 °C 30.3 in /  1027.0 hPa NW 11.5 mph /  18.5 km/h 11.5 mph /  18.5 km/h 70 % 0 in /  0.0 mm 0.0 W/m2 CLR
19:25 51.1 °F /  10.6 °C 41.5 °F /  5.3 °C 30.3 in /  1027.0 hPa NNW 17 mph /  27.4 km/h 17 mph /  27.4 km/h 70 % 0 in /  0.0 mm 0.0 W/m2 CLR
19:30 51.1 °F /  10.6 °C 41.9 °F /  5.5 °C 30.3 in /  1027.3 hPa North 18.4 mph /  29.6 km/h 18.4 mph /  29.6 km/h 71 % 0 in /  0.0 mm 0.0 W/m2 CLR
19:40 51.1 °F /  10.6 °C 41.9 °F /  5.5 °C 30.3 in /  1027.3 hPa North 15 mph /  24.1 km/h 15 mph /  24.1 km/h 71 % 0 in /  0.0 mm 0.0 W/m2 CLR
19:45 51.1 °F /  10.6 °C 42.3 °F /  5.7 °C 30.3 in /  1027.3 hPa North 24.2 mph /  38.9 km/h 24.2 mph /  38.9 km/h 72 % 0 in /  0.0 mm 0.0 W/m2 CLR
19:50 51.1 °F /  10.6 °C 41.9 °F /  5.5 °C 30.3 in /  1027.3 hPa NNW 15 mph /  24.1 km/h 15 mph /  24.1 km/h 71 % 0 in /  0.0 mm 0.0 W/m2 CLR
19:55 51.1 °F /  10.6 °C 41.9 °F /  5.5 °C 30.3 in /  1027.0 hPa North 19 mph /  30.6 km/h 19 mph /  30.6 km/h 71 % 0 in /  0.0 mm 0.0 W/m2 CLR
20:00 51.1 °F /  10.6 °C 42.3 °F /  5.7 °C 30.3 in /  1027.3 hPa NNW 19 mph /  30.6 km/h 19 mph /  30.6 km/h 72 % 0 in /  0.0 mm 0.0 W/m2 CLR
20:05 51.1 °F /  10.6 °C 42.3 °F /  5.7 °C 30.3 in /  1027.3 hPa NNW 19.6 mph /  31.5 km/h 19.6 mph /  31.5 km/h 72 % 0 in /  0.0 mm 0.0 W/m2 CLR
20:10 50 °F /  10.0 °C 41.4 °F /  5.2 °C 30.3 in /  1027.3 hPa North 13 mph /  20.9 km/h 13 mph /  20.9 km/h 72 % 0 in /  0.0 mm 0.0 W/m2 CLR
20:15 50 °F /  10.0 °C 41.7 °F /  5.4 °C 30.3 in /  1027.3 hPa North 17.3 mph /  27.8 km/h 17.3 mph /  27.8 km/h 73 % 0 in /  0.0 mm 0.0 W/m2 CLR
20:20 50 °F /  10.0 °C 41.7 °F /  5.4 °C 30.3 in /  1027.3 hPa North 17 mph /  27.4 km/h 17 mph /  27.4 km/h 73 % 0 in /  0.0 mm 0.0 W/m2 CLR
20:25 50 °F /  10.0 °C 41.7 °F /  5.4 °C 30.3 in /  1027.3 hPa NNW 15 mph /  24.1 km/h 15 mph /  24.1 km/h 73 % 0 in /  0.0 mm 0.0 W/m2 CLR
20:30 48.9 °F /  9.4 °C 41.2 °F /  5.1 °C 30.3 in /  1027.3 hPa NNW 18.4 mph /  29.6 km/h 18.4 mph /  29.6 km/h 74 % 0 in /  0.0 mm 0.0 W/m2 CLR
20:35 48.9 °F /  9.4 °C 41.2 °F /  5.1 °C 30.3 in /  1027.0 hPa NNW 17.3 mph /  27.8 km/h 17.3 mph /  27.8 km/h 74 % 0 in /  0.0 mm 0.0 W/m2 CLR
20:40 48.9 °F /  9.4 °C 41.2 °F /  5.1 °C 30.3 in /  1027.0 hPa NW 12 mph /  19.3 km/h 12 mph /  19.3 km/h 74 % 0 in /  0.0 mm 0.0 W/m2 CLR
20:45 48.9 °F /  9.4 °C 41.4 °F /  5.2 °C 30.3 in /  1027.0 hPa NNW 16.1 mph /  25.9 km/h 16.1 mph /  25.9 km/h 75 % 0 in /  0.0 mm 0.0 W/m2 CLR
20:50 48.9 °F /  9.4 °C 41.4 °F /  5.2 °C 30.3 in /  1027.0 hPa NW 17.3 mph /  27.8 km/h 17.3 mph /  27.8 km/h 75 % 0 in /  0.0 mm 0.0 W/m2 CLR
20:55 48.9 °F /  9.4 °C 41.4 °F /  5.2 °C 30.3 in /  1027.0 hPa NNW 17.3 mph /  27.8 km/h 17.3 mph /  27.8 km/h 75 % 0 in /  0.0 mm 0.0 W/m2 CLR
21:00 48.9 °F /  9.4 °C 41.7 °F /  5.4 °C 30.3 in /  1027.0 hPa North 14 mph /  22.5 km/h 14 mph /  22.5 km/h 76 % 0 in /  0.0 mm 0.0 W/m2 CLR
21:05 48.9 °F /  9.4 °C 42.1 °F /  5.6 °C 30.3 in /  1027.0 hPa North 12.7 mph /  20.4 km/h 12.7 mph /  20.4 km/h 77 % 0 in /  0.0 mm 0.0 W/m2 CLR
21:10 48.9 °F /  9.4 °C 41.7 °F /  5.4 °C 30.3 in /  1027.0 hPa NNW 12.7 mph /  20.4 km/h 12.7 mph /  20.4 km/h 76 % 0 in /  0.0 mm 0.0 W/m2 CLR
21:15 48.9 °F /  9.4 °C 41.7 °F /  5.4 °C 30.3 in /  1027.3 hPa NW 11.5 mph /  18.5 km/h 11.5 mph /  18.5 km/h 76 % 0 in /  0.0 mm 0.0 W/m2 CLR
21:20 48.9 °F /  9.4 °C 42.1 °F /  5.6 °C 30.3 in /  1027.0 hPa NW 17.3 mph /  27.8 km/h 17.3 mph /  27.8 km/h 77 % 0 in /  0.0 mm 0.0 W/m2 CLR
21:25 48.9 °F /  9.4 °C 42.1 °F /  5.6 °C 30.3 in /  1027.0 hPa NNW 16 mph /  25.7 km/h 16 mph /  25.7 km/h 77 % 0 in /  0.0 mm 0.0 W/m2 CLR
21:30 48.9 °F /  9.4 °C 42.1 °F /  5.6 °C 30.3 in /  1027.0 hPa NW 16.1 mph /  25.9 km/h 16.1 mph /  25.9 km/h 77 % 0 in /  0.0 mm 0.0 W/m2 CLR
21:35 48 °F /  8.9 °C 41.2 °F /  5.1 °C 30.3 in /  1027.0 hPa North 15 mph /  24.1 km/h 15 mph /  24.1 km/h 77 % 0 in /  0.0 mm 0.0 W/m2 CLR
21:40 48 °F /  8.9 °C 41.2 °F /  5.1 °C 30.3 in /  1027.0 hPa NNW 12.7 mph /  20.4 km/h 12.7 mph /  20.4 km/h 77 % 0 in /  0.0 mm 0.0 W/m2 CLR
21:45 48 °F /  8.9 °C 41.2 °F /  5.1 °C 30.3 in /  1027.0 hPa NNW 11.5 mph /  18.5 km/h 11.5 mph /  18.5 km/h 77 % 0 in /  0.0 mm 0.0 W/m2 CLR
21:50 48 °F /  8.9 °C 41.5 °F /  5.3 °C 30.3 in /  1027.0 hPa NW 11.5 mph /  18.5 km/h 11.5 mph /  18.5 km/h 78 % 0 in /  0.0 mm 0.0 W/m2 CLR
21:55 48 °F /  8.9 °C 41.5 °F /  5.3 °C 30.3 in /  1027.3 hPa NNW 13.8 mph /  22.2 km/h 13.8 mph /  22.2 km/h 78 % 0 in /  0.0 mm 0.0 W/m2 CLR
22:00 48 °F /  8.9 °C 41.5 °F /  5.3 °C 30.3 in /  1027.3 hPa NNW 17.3 mph /  27.8 km/h 17.3 mph /  27.8 km/h 78 % 0 in /  0.0 mm 0.0 W/m2 CLR
22:05 48 °F /  8.9 °C 41.5 °F /  5.3 °C 30.3 in /  1027.3 hPa North 12.7 mph /  20.4 km/h 12.7 mph /  20.4 km/h 78 % 0 in /  0.0 mm 0.0 W/m2 CLR
22:10 48 °F /  8.9 °C 41.5 °F /  5.3 °C 30.3 in /  1027.3 hPa North 16.1 mph /  25.9 km/h 16.1 mph /  25.9 km/h 78 % 0 in /  0.0 mm 0.0 W/m2 CLR
22:15 48 °F /  8.9 °C 41.2 °F /  5.1 °C 30.3 in /  1027.3 hPa NNW 15 mph /  24.1 km/h 15 mph /  24.1 km/h 77 % 0 in /  0.0 mm 0.0 W/m2 CLR
22:20 46.9 °F /  8.3 °C 40.5 °F /  4.7 °C 30.3 in /  1027.3 hPa North 18.4 mph /  29.6 km/h 18.4 mph /  29.6 km/h 78 % 0 in /  0.0 mm 0.0 W/m2 CLR
22:25 46.9 °F /  8.3 °C 40.3 °F /  4.6 °C 30.3 in /  1027.3 hPa WNW 10.4 mph /  16.7 km/h 10.4 mph /  16.7 km/h 77 % 0 in /  0.0 mm 0.0 W/m2 CLR
22:30 46.9 °F /  8.3 °C 40.3 °F /  4.6 °C 30.3 in /  1027.3 hPa NNW 11.5 mph /  18.5 km/h 11.5 mph /  18.5 km/h 77 % 0 in /  0.0 mm 0.0 W/m2 CLR
22:35 46.9 °F /  8.3 °C 40.5 °F /  4.7 °C 30.3 in /  1027.3 hPa NW 11.5 mph /  18.5 km/h 11.5 mph /  18.5 km/h 78 % 0 in /  0.0 mm 0.0 W/m2 CLR
22:40 46.9 °F /  8.3 °C 40.3 °F /  4.6 °C 30.3 in /  1027.3 hPa North 8.1 mph /  13.0 km/h 8.1 mph /  13.0 km/h 77 % 0 in /  0.0 mm 0.0 W/m2 CLR
22:51 46.9 °F /  8.3 °C 40.3 °F /  4.6 °C 30.3 in /  1027.3 hPa NW 6.9 mph /  11.1 km/h 6.9 mph /  11.1 km/h 77 % 0 in /  0.0 mm 0.0 W/m2 CLR
22:56 46.9 °F /  8.3 °C 40.5 °F /  4.7 °C 30.3 in /  1027.3 hPa WNW 6.9 mph /  11.1 km/h 6.9 mph /  11.1 km/h 78 % 0 in /  0.0 mm 0.0 W/m2 CLR
22:57 46 °F /  7.8 °C 39.6 °F /  4.2 °C 30.3 in /  1027.3 hPa NW 3.5 mph /  5.6 km/h   78 % 0 in /  0.0 mm 0.0 W/m2 CLR
23:02 46 °F /  7.8 °C 39.6 °F /  4.2 °C 30.3 in /  1027.3 hPa WNW 8.1 mph /  13.0 km/h 8.1 mph /  13.0 km/h 78 % 0 in /  0.0 mm 0.0 W/m2 CLR
23:07 46 °F /  7.8 °C 39.6 °F /  4.2 °C 30.3 in /  1027.0 hPa NNW 9 mph /  14.5 km/h 9 mph /  14.5 km/h 78 % 0 in /  0.0 mm 0.0 W/m2 CLR
23:12 46 °F /  7.8 °C 39.2 °F /  4.0 °C 30.3 in /  1027.0 hPa NW 8 mph /  12.9 km/h 8 mph /  12.9 km/h 77 % 0 in /  0.0 mm 0.0 W/m2 CLR
23:22 46 °F /  7.8 °C 38.8 °F /  3.8 °C 30.3 in /  1027.0 hPa NNW 18 mph /  29.0 km/h 18 mph /  29.0 km/h 76 % 0 in /  0.0 mm 0.0 W/m2 CLR
23:27 46 °F /  7.8 °C 38.8 °F /  3.8 °C 30.3 in /  1027.0 hPa WNW 12 mph /  19.3 km/h 12 mph /  19.3 km/h 76 % 0 in /  0.0 mm 0.0 W/m2 CLR
23:32 46 °F /  7.8 °C 38.5 °F /  3.6 °C 30.3 in /  1027.0 hPa NW 13.8 mph /  22.2 km/h 13.8 mph /  22.2 km/h 75 % 0 in /  0.0 mm 0.0 W/m2 CLR
23:47 46 °F /  7.8 °C 38.1 °F /  3.4 °C 30.3 in /  1027.3 hPa West 11 mph /  17.7 km/h 11 mph /  17.7 km/h 74 % 0 in /  0.0 mm 0.0 W/m2 CLR
23:52 46 °F /  7.8 °C 38.5 °F /  3.6 °C 30.3 in /  1027.3 hPa NW 10.4 mph /  16.7 km/h 10.4 mph /  16.7 km/h 75 % 0 in /  0.0 mm 0.0 W/m2 CLR
23:57 46 °F /  7.8 °C 38.5 °F /  3.6 °C 30.3 in /  1027.3 hPa North 13.8 mph /  22.2 km/h 13.8 mph /  22.2 km/h 75 % 0 in /  0.0 mm 0.0 W/m2 CLR
Lo Temps de Massalio
Compliments of Weather Underground - 1 mb